sensor_id;sensor_type;location;lat;lon;timestamp;P1;durP1;ratioP1;P2;durP2;ratioP2
12976;SDS011;6553;48.412;9.514;2023-04-15T00:01:25;3.17;;;2.78;;
12976;SDS011;6553;48.412;9.514;2023-04-15T00:03:52;3.42;;;2.92;;
12976;SDS011;6553;48.412;9.514;2023-04-15T00:06:22;3.17;;;2.75;;
12976;SDS011;6553;48.412;9.514;2023-04-15T00:08:48;3.22;;;2.90;;
12976;SDS011;6553;48.412;9.514;2023-04-15T00:11:15;3.15;;;2.60;;
12976;SDS011;6553;48.412;9.514;2023-04-15T00:13:42;3.10;;;2.80;;
12976;SDS011;6553;48.412;9.514;2023-04-15T00:16:08;3.60;;;2.80;;
12976;SDS011;6553;48.412;9.514;2023-04-15T00:18:36;3.00;;;2.70;;
12976;SDS011;6553;48.412;9.514;2023-04-15T00:21:03;3.05;;;2.75;;
12976;SDS011;6553;48.412;9.514;2023-04-15T00:23:29;2.65;;;2.45;;
12976;SDS011;6553;48.412;9.514;2023-04-15T00:25:56;2.97;;;2.67;;
12976;SDS011;6553;48.412;9.514;2023-04-15T00:28:22;3.30;;;3.00;;
12976;SDS011;6553;48.412;9.514;2023-04-15T00:30:47;4.28;;;3.08;;
12976;SDS011;6553;48.412;9.514;2023-04-15T00:33:14;4.05;;;2.78;;
12976;SDS011;6553;48.412;9.514;2023-04-15T00:35:43;2.90;;;2.60;;
12976;SDS011;6553;48.412;9.514;2023-04-15T00:38:08;3.30;;;2.95;;
12976;SDS011;6553;48.412;9.514;2023-04-15T00:40:34;3.75;;;2.67;;
12976;SDS011;6553;48.412;9.514;2023-04-15T00:43:00;4.22;;;2.72;;
12976;SDS011;6553;48.412;9.514;2023-04-15T00:45:26;3.75;;;3.08;;
12976;SDS011;6553;48.412;9.514;2023-04-15T00:47:53;3.47;;;2.83;;
12976;SDS011;6553;48.412;9.514;2023-04-15T00:50:20;3.97;;;3.38;;
12976;SDS011;6553;48.412;9.514;2023-04-15T00:52:46;3.33;;;3.03;;
12976;SDS011;6553;48.412;9.514;2023-04-15T00:55:13;3.17;;;2.88;;
12976;SDS011;6553;48.412;9.514;2023-04-15T00:57:39;3.38;;;3.08;;
12976;SDS011;6553;48.412;9.514;2023-04-15T01:00:05;2.97;;;2.78;;
12976;SDS011;6553;48.412;9.514;2023-04-15T01:02:34;3.67;;;3.28;;
12976;SDS011;6553;48.412;9.514;2023-04-15T01:05:00;3.45;;;3.15;;
12976;SDS011;6553;48.412;9.514;2023-04-15T01:07:28;3.20;;;2.90;;
12976;SDS011;6553;48.412;9.514;2023-04-15T01:09:54;3.30;;;3.00;;
12976;SDS011;6553;48.412;9.514;2023-04-15T01:12:21;3.60;;;3.13;;
12976;SDS011;6553;48.412;9.514;2023-04-15T01:14:50;3.53;;;3.22;;
12976;SDS011;6553;48.412;9.514;2023-04-15T01:17:17;3.50;;;3.20;;
12976;SDS011;6553;48.412;9.514;2023-04-15T01:19:43;2.95;;;2.53;;
12976;SDS011;6553;48.412;9.514;2023-04-15T01:22:09;3.40;;;2.97;;
12976;SDS011;6553;48.412;9.514;2023-04-15T01:24:36;3.05;;;2.75;;
12976;SDS011;6553;48.412;9.514;2023-04-15T01:27:03;3.42;;;2.80;;
12976;SDS011;6553;48.412;9.514;2023-04-15T01:29:31;3.15;;;2.72;;
12976;SDS011;6553;48.412;9.514;2023-04-15T01:31:59;3.55;;;2.92;;
12976;SDS011;6553;48.412;9.514;2023-04-15T01:34:25;3.03;;;2.80;;
12976;SDS011;6553;48.412;9.514;2023-04-15T01:36:52;3.33;;;3.00;;
12976;SDS011;6553;48.412;9.514;2023-04-15T01:39:20;2.80;;;2.58;;
12976;SDS011;6553;48.412;9.514;2023-04-15T01:41:46;2.65;;;2.45;;
12976;SDS011;6553;48.412;9.514;2023-04-15T01:44:14;2.78;;;2.50;;
12976;SDS011;6553;48.412;9.514;2023-04-15T01:46:40;2.97;;;2.67;;
12976;SDS011;6553;48.412;9.514;2023-04-15T01:49:06;3.10;;;2.42;;
12976;SDS011;6553;48.412;9.514;2023-04-15T01:51:32;3.03;;;2.72;;
12976;SDS011;6553;48.412;9.514;2023-04-15T01:53:58;2.95;;;2.75;;
12976;SDS011;6553;48.412;9.514;2023-04-15T01:56:23;2.50;;;2.30;;
12976;SDS011;6553;48.412;9.514;2023-04-15T01:58:49;2.83;;;2.45;;
12976;SDS011;6553;48.412;9.514;2023-04-15T02:01:15;2.83;;;2.40;;
12976;SDS011;6553;48.412;9.514;2023-04-15T02:03:43;2.72;;;2.33;;
12976;SDS011;6553;48.412;9.514;2023-04-15T02:06:10;2.75;;;2.42;;
12976;SDS011;6553;48.412;9.514;2023-04-15T02:08:36;2.83;;;2.55;;
12976;SDS011;6553;48.412;9.514;2023-04-15T02:11:05;3.10;;;2.50;;
12976;SDS011;6553;48.412;9.514;2023-04-15T02:13:30;2.75;;;2.47;;
12976;SDS011;6553;48.412;9.514;2023-04-15T02:15:56;2.67;;;2.47;;
12976;SDS011;6553;48.412;9.514;2023-04-15T02:18:23;2.92;;;2.60;;
12976;SDS011;6553;48.412;9.514;2023-04-15T02:20:50;2.70;;;2.33;;
12976;SDS011;6553;48.412;9.514;2023-04-15T02:23:16;2.65;;;2.33;;
12976;SDS011;6553;48.412;9.514;2023-04-15T02:25:42;2.53;;;2.33;;
12976;SDS011;6553;48.412;9.514;2023-04-15T02:28:08;2.65;;;2.20;;
12976;SDS011;6553;48.412;9.514;2023-04-15T02:30:34;2.78;;;2.53;;
12976;SDS011;6553;48.412;9.514;2023-04-15T02:33:00;2.72;;;2.22;;
12976;SDS011;6553;48.412;9.514;2023-04-15T02:35:27;3.03;;;2.53;;
12976;SDS011;6553;48.412;9.514;2023-04-15T02:37:53;2.53;;;2.33;;
12976;SDS011;6553;48.412;9.514;2023-04-15T02:40:19;3.08;;;2.20;;
12976;SDS011;6553;48.412;9.514;2023-04-15T02:42:45;2.72;;;2.50;;
12976;SDS011;6553;48.412;9.514;2023-04-15T02:45:14;2.33;;;2.13;;
12976;SDS011;6553;48.412;9.514;2023-04-15T02:47:41;2.40;;;2.20;;
12976;SDS011;6553;48.412;9.514;2023-04-15T02:50:09;2.63;;;2.42;;
12976;SDS011;6553;48.412;9.514;2023-04-15T02:52:41;2.58;;;2.38;;
12976;SDS011;6553;48.412;9.514;2023-04-15T02:55:08;2.60;;;2.38;;
12976;SDS011;6553;48.412;9.514;2023-04-15T02:57:35;2.50;;;2.22;;
12976;SDS011;6553;48.412;9.514;2023-04-15T03:00:05;2.58;;;2.38;;
12976;SDS011;6553;48.412;9.514;2023-04-15T03:02:35;2.55;;;2.35;;
12976;SDS011;6553;48.412;9.514;2023-04-15T03:05:03;2.95;;;2.38;;
12976;SDS011;6553;48.412;9.514;2023-04-15T03:07:30;2.40;;;2.20;;
12976;SDS011;6553;48.412;9.514;2023-04-15T03:09:57;2.90;;;2.25;;
12976;SDS011;6553;48.412;9.514;2023-04-15T03:12:23;2.50;;;2.30;;
12976;SDS011;6553;48.412;9.514;2023-04-15T03:14:52;2.30;;;2.10;;
12976;SDS011;6553;48.412;9.514;2023-04-15T03:17:21;2.65;;;2.20;;
12976;SDS011;6553;48.412;9.514;2023-04-15T03:19:47;2.33;;;2.10;;
12976;SDS011;6553;48.412;9.514;2023-04-15T03:22:13;2.30;;;2.10;;
12976;SDS011;6553;48.412;9.514;2023-04-15T03:24:39;2.00;;;1.90;;
12976;SDS011;6553;48.412;9.514;2023-04-15T03:27:05;2.65;;;2.38;;
12976;SDS011;6553;48.412;9.514;2023-04-15T03:29:33;2.17;;;1.98;;
12976;SDS011;6553;48.412;9.514;2023-04-15T03:31:59;3.22;;;2.17;;
12976;SDS011;6553;48.412;9.514;2023-04-15T03:34:28;2.50;;;2.30;;
12976;SDS011;6553;48.412;9.514;2023-04-15T03:36:54;2.47;;;2.28;;
12976;SDS011;6553;48.412;9.514;2023-04-15T03:39:20;2.55;;;2.35;;
12976;SDS011;6553;48.412;9.514;2023-04-15T03:41:46;2.53;;;2.30;;
12976;SDS011;6553;48.412;9.514;2023-04-15T03:44:12;2.55;;;2.00;;
12976;SDS011;6553;48.412;9.514;2023-04-15T03:46:37;2.00;;;1.90;;
12976;SDS011;6553;48.412;9.514;2023-04-15T03:49:05;2.25;;;2.03;;
12976;SDS011;6553;48.412;9.514;2023-04-15T03:51:31;2.38;;;2.17;;
12976;SDS011;6553;48.412;9.514;2023-04-15T03:53:57;2.50;;;2.30;;
12976;SDS011;6553;48.412;9.514;2023-04-15T03:56:23;2.53;;;2.35;;
12976;SDS011;6553;48.412;9.514;2023-04-15T03:58:49;2.10;;;2.00;;
12976;SDS011;6553;48.412;9.514;2023-04-15T04:01:15;2.05;;;1.85;;
12976;SDS011;6553;48.412;9.514;2023-04-15T04:03:41;2.40;;;2.20;;
12976;SDS011;6553;48.412;9.514;2023-04-15T04:06:06;2.17;;;1.98;;
12976;SDS011;6553;48.412;9.514;2023-04-15T04:08:32;2.30;;;2.10;;
12976;SDS011;6553;48.412;9.514;2023-04-15T04:10:58;1.95;;;1.83;;
12976;SDS011;6553;48.412;9.514;2023-04-15T04:13:24;1.90;;;1.80;;
12976;SDS011;6553;48.412;9.514;2023-04-15T04:15:50;2.50;;;2.30;;
12976;SDS011;6553;48.412;9.514;2023-04-15T04:18:15;2.03;;;1.83;;
12976;SDS011;6553;48.412;9.514;2023-04-15T04:20:41;2.42;;;2.03;;
12976;SDS011;6553;48.412;9.514;2023-04-15T04:23:07;2.70;;;2.05;;
12976;SDS011;6553;48.412;9.514;2023-04-15T04:25:32;2.60;;;2.10;;
12976;SDS011;6553;48.412;9.514;2023-04-15T04:27:58;2.15;;;1.95;;
12976;SDS011;6553;48.412;9.514;2023-04-15T04:30:24;2.10;;;2.00;;
12976;SDS011;6553;48.412;9.514;2023-04-15T04:32:50;2.35;;;2.13;;
12976;SDS011;6553;48.412;9.514;2023-04-15T04:35:15;2.33;;;2.13;;
12976;SDS011;6553;48.412;9.514;2023-04-15T04:37:41;2.08;;;1.98;;
12976;SDS011;6553;48.412;9.514;2023-04-15T04:40:07;1.80;;;1.70;;
12976;SDS011;6553;48.412;9.514;2023-04-15T04:42:34;2.50;;;2.30;;
12976;SDS011;6553;48.412;9.514;2023-04-15T04:45:00;2.10;;;1.90;;
12976;SDS011;6553;48.412;9.514;2023-04-15T04:47:26;2.55;;;2.25;;
12976;SDS011;6553;48.412;9.514;2023-04-15T04:49:51;2.30;;;2.10;;
12976;SDS011;6553;48.412;9.514;2023-04-15T04:52:17;2.22;;;2.03;;
12976;SDS011;6553;48.412;9.514;2023-04-15T04:54:43;2.50;;;2.20;;
12976;SDS011;6553;48.412;9.514;2023-04-15T04:57:09;2.10;;;2.00;;
12976;SDS011;6553;48.412;9.514;2023-04-15T04:59:34;2.00;;;1.90;;
12976;SDS011;6553;48.412;9.514;2023-04-15T05:02:00;2.10;;;1.92;;
12976;SDS011;6553;48.412;9.514;2023-04-15T05:04:27;2.10;;;1.90;;
12976;SDS011;6553;48.412;9.514;2023-04-15T05:06:53;1.83;;;1.70;;
12976;SDS011;6553;48.412;9.514;2023-04-15T05:09:18;1.77;;;1.55;;
12976;SDS011;6553;48.412;9.514;2023-04-15T05:11:44;2.30;;;2.10;;
12976;SDS011;6553;48.412;9.514;2023-04-15T05:14:10;1.90;;;1.80;;
12976;SDS011;6553;48.412;9.514;2023-04-15T05:16:35;2.47;;;2.28;;
12976;SDS011;6553;48.412;9.514;2023-04-15T05:19:01;2.17;;;1.95;;
12976;SDS011;6553;48.412;9.514;2023-04-15T05:21:27;2.38;;;2.17;;
12976;SDS011;6553;48.412;9.514;2023-04-15T05:23:52;2.00;;;1.90;;
12976;SDS011;6553;48.412;9.514;2023-04-15T05:26:18;2.13;;;1.92;;
12976;SDS011;6553;48.412;9.514;2023-04-15T05:28:45;1.83;;;1.73;;
12976;SDS011;6553;48.412;9.514;2023-04-15T05:31:11;2.00;;;1.85;;
12976;SDS011;6553;48.412;9.514;2023-04-15T05:33:38;1.90;;;1.80;;
12976;SDS011;6553;48.412;9.514;2023-04-15T05:36:04;2.30;;;2.10;;
12976;SDS011;6553;48.412;9.514;2023-04-15T05:38:30;1.70;;;1.60;;
12976;SDS011;6553;48.412;9.514;2023-04-15T05:40:56;2.42;;;2.20;;
12976;SDS011;6553;48.412;9.514;2023-04-15T05:43:22;2.53;;;2.33;;
12976;SDS011;6553;48.412;9.514;2023-04-15T05:45:47;2.20;;;2.00;;
12976;SDS011;6553;48.412;9.514;2023-04-15T05:48:13;2.50;;;2.03;;
12976;SDS011;6553;48.412;9.514;2023-04-15T05:50:39;2.20;;;2.00;;
12976;SDS011;6553;48.412;9.514;2023-04-15T05:53:07;1.80;;;1.70;;
12976;SDS011;6553;48.412;9.514;2023-04-15T05:55:33;2.15;;;1.95;;
12976;SDS011;6553;48.412;9.514;2023-04-15T05:57:59;1.95;;;1.83;;
12976;SDS011;6553;48.412;9.514;2023-04-15T06:00:24;2.10;;;1.90;;
12976;SDS011;6553;48.412;9.514;2023-04-15T06:02:50;2.00;;;1.80;;
12976;SDS011;6553;48.412;9.514;2023-04-15T06:05:17;1.60;;;1.45;;
12976;SDS011;6553;48.412;9.514;2023-04-15T06:07:43;1.77;;;1.67;;
12976;SDS011;6553;48.412;9.514;2023-04-15T06:10:08;1.90;;;1.73;;
12976;SDS011;6553;48.412;9.514;2023-04-15T06:12:35;2.10;;;1.88;;
12976;SDS011;6553;48.412;9.514;2023-04-15T06:15:00;1.67;;;1.58;;
12976;SDS011;6553;48.412;9.514;2023-04-15T06:17:26;2.17;;;1.98;;
12976;SDS011;6553;48.412;9.514;2023-04-15T06:19:52;1.92;;;1.80;;
12976;SDS011;6553;48.412;9.514;2023-04-15T06:22:23;2.00;;;1.80;;
12976;SDS011;6553;48.412;9.514;2023-04-15T06:24:49;2.10;;;2.00;;
12976;SDS011;6553;48.412;9.514;2023-04-15T06:27:15;2.00;;;1.90;;
12976;SDS011;6553;48.412;9.514;2023-04-15T06:29:41;2.10;;;1.90;;
12976;SDS011;6553;48.412;9.514;2023-04-15T06:32:07;2.28;;;2.08;;
12976;SDS011;6553;48.412;9.514;2023-04-15T06:34:33;2.38;;;1.98;;
12976;SDS011;6553;48.412;9.514;2023-04-15T06:36:59;2.85;;;1.92;;
12976;SDS011;6553;48.412;9.514;2023-04-15T06:39:25;2.00;;;1.90;;
12976;SDS011;6553;48.412;9.514;2023-04-15T06:41:51;2.28;;;2.08;;
12976;SDS011;6553;48.412;9.514;2023-04-15T06:44:19;2.42;;;2.22;;
12976;SDS011;6553;48.412;9.514;2023-04-15T06:46:45;2.38;;;1.90;;
12976;SDS011;6553;48.412;9.514;2023-04-15T06:49:11;2.10;;;1.90;;
12976;SDS011;6553;48.412;9.514;2023-04-15T06:51:36;2.05;;;1.95;;
12976;SDS011;6553;48.412;9.514;2023-04-15T06:54:03;2.15;;;1.95;;
12976;SDS011;6553;48.412;9.514;2023-04-15T06:56:30;2.40;;;2.20;;
12976;SDS011;6553;48.412;9.514;2023-04-15T06:58:57;2.67;;;2.47;;
12976;SDS011;6553;48.412;9.514;2023-04-15T07:01:23;2.58;;;2.38;;
12976;SDS011;6553;48.412;9.514;2023-04-15T07:03:49;2.92;;;2.40;;
12976;SDS011;6553;48.412;9.514;2023-04-15T07:06:15;2.17;;;1.98;;
12976;SDS011;6553;48.412;9.514;2023-04-15T07:08:41;2.22;;;2.05;;
12976;SDS011;6553;48.412;9.514;2023-04-15T07:11:07;2.58;;;2.08;;
12976;SDS011;6553;48.412;9.514;2023-04-15T07:13:33;2.28;;;2.08;;
12976;SDS011;6553;48.412;9.514;2023-04-15T07:15:58;2.40;;;2.20;;
12976;SDS011;6553;48.412;9.514;2023-04-15T07:18:24;2.38;;;2.17;;
12976;SDS011;6553;48.412;9.514;2023-04-15T07:20:50;2.47;;;2.17;;
12976;SDS011;6553;48.412;9.514;2023-04-15T07:23:16;2.10;;;1.90;;
12976;SDS011;6553;48.412;9.514;2023-04-15T07:25:42;2.67;;;1.95;;
12976;SDS011;6553;48.412;9.514;2023-04-15T07:28:08;2.03;;;1.75;;
12976;SDS011;6553;48.412;9.514;2023-04-15T07:30:33;2.35;;;1.95;;
12976;SDS011;6553;48.412;9.514;2023-04-15T07:33:00;2.17;;;2.08;;
12976;SDS011;6553;48.412;9.514;2023-04-15T07:35:26;2.97;;;2.22;;
12976;SDS011;6553;48.412;9.514;2023-04-15T07:37:53;2.83;;;2.35;;
12976;SDS011;6553;48.412;9.514;2023-04-15T07:40:19;3.08;;;2.38;;
12976;SDS011;6553;48.412;9.514;2023-04-15T07:42:46;1.98;;;1.85;;
12976;SDS011;6553;48.412;9.514;2023-04-15T07:45:13;1.95;;;1.83;;
12976;SDS011;6553;48.412;9.514;2023-04-15T07:47:40;2.03;;;1.92;;
12976;SDS011;6553;48.412;9.514;2023-04-15T07:50:07;1.98;;;1.85;;
12976;SDS011;6553;48.412;9.514;2023-04-15T07:52:37;2.25;;;1.90;;
12976;SDS011;6553;48.412;9.514;2023-04-15T07:55:06;2.25;;;2.05;;
12976;SDS011;6553;48.412;9.514;2023-04-15T07:57:34;2.13;;;1.92;;
12976;SDS011;6553;48.412;9.514;2023-04-15T08:00:00;1.98;;;1.83;;
12976;SDS011;6553;48.412;9.514;2023-04-15T08:02:37;2.83;;;2.20;;
12976;SDS011;6553;48.412;9.514;2023-04-15T08:05:04;2.25;;;1.70;;
12976;SDS011;6553;48.412;9.514;2023-04-15T08:07:31;2.83;;;2.00;;
12976;SDS011;6553;48.412;9.514;2023-04-15T08:09:57;2.13;;;1.85;;
12976;SDS011;6553;48.412;9.514;2023-04-15T08:12:23;2.78;;;2.17;;
12976;SDS011;6553;48.412;9.514;2023-04-15T08:14:50;1.88;;;1.77;;
12976;SDS011;6553;48.412;9.514;2023-04-15T08:17:16;2.30;;;2.10;;
12976;SDS011;6553;48.412;9.514;2023-04-15T08:19:41;2.15;;;1.95;;
12976;SDS011;6553;48.412;9.514;2023-04-15T08:22:07;2.08;;;1.88;;
12976;SDS011;6553;48.412;9.514;2023-04-15T08:24:34;3.03;;;2.10;;
12976;SDS011;6553;48.412;9.514;2023-04-15T08:27:00;2.25;;;1.90;;
12976;SDS011;6553;48.412;9.514;2023-04-15T08:29:28;1.90;;;1.80;;
12976;SDS011;6553;48.412;9.514;2023-04-15T08:31:54;2.88;;;1.80;;
12976;SDS011;6553;48.412;9.514;2023-04-15T08:34:20;2.58;;;2.00;;
12976;SDS011;6553;48.412;9.514;2023-04-15T08:36:46;2.10;;;1.88;;
12976;SDS011;6553;48.412;9.514;2023-04-15T08:39:11;1.95;;;1.70;;
12976;SDS011;6553;48.412;9.514;2023-04-15T08:41:50;2.05;;;1.88;;
12976;SDS011;6553;48.412;9.514;2023-04-15T08:44:23;1.83;;;1.73;;
12976;SDS011;6553;48.412;9.514;2023-04-15T08:46:50;1.50;;;1.40;;
12976;SDS011;6553;48.412;9.514;2023-04-15T08:49:17;1.80;;;1.70;;
12976;SDS011;6553;48.412;9.514;2023-04-15T08:51:46;1.85;;;1.60;;
12976;SDS011;6553;48.412;9.514;2023-04-15T08:54:13;1.70;;;1.60;;
12976;SDS011;6553;48.412;9.514;2023-04-15T08:56:38;1.52;;;1.42;;
12976;SDS011;6553;48.412;9.514;2023-04-15T08:59:04;1.77;;;1.67;;
12976;SDS011;6553;48.412;9.514;2023-04-15T09:01:31;1.77;;;1.63;;
12976;SDS011;6553;48.412;9.514;2023-04-15T09:03:58;1.50;;;1.40;;
12976;SDS011;6553;48.412;9.514;2023-04-15T09:06:25;1.63;;;1.52;;
12976;SDS011;6553;48.412;9.514;2023-04-15T09:08:51;1.90;;;1.80;;
12976;SDS011;6553;48.412;9.514;2023-04-15T09:11:17;1.80;;;1.60;;
12976;SDS011;6553;48.412;9.514;2023-04-15T09:13:43;1.63;;;1.52;;
12976;SDS011;6553;48.412;9.514;2023-04-15T09:16:10;2.08;;;1.80;;
12976;SDS011;6553;48.412;9.514;2023-04-15T09:18:37;1.42;;;1.33;;
12976;SDS011;6553;48.412;9.514;2023-04-15T09:21:04;1.88;;;1.42;;
12976;SDS011;6553;48.412;9.514;2023-04-15T09:23:31;1.50;;;1.35;;
12976;SDS011;6553;48.412;9.514;2023-04-15T09:25:58;1.73;;;1.60;;
12976;SDS011;6553;48.412;9.514;2023-04-15T09:28:24;1.42;;;1.33;;
12976;SDS011;6553;48.412;9.514;2023-04-15T09:30:57;1.70;;;1.60;;
12976;SDS011;6553;48.412;9.514;2023-04-15T09:33:25;1.45;;;1.35;;
12976;SDS011;6553;48.412;9.514;2023-04-15T09:35:57;1.73;;;1.48;;
12976;SDS011;6553;48.412;9.514;2023-04-15T09:38:26;1.25;;;1.15;;
12976;SDS011;6553;48.412;9.514;2023-04-15T09:40:52;2.08;;;1.67;;
12976;SDS011;6553;48.412;9.514;2023-04-15T09:43:18;1.33;;;1.23;;
12976;SDS011;6553;48.412;9.514;2023-04-15T09:48:35;1.40;;;1.30;;
12976;SDS011;6553;48.412;9.514;2023-04-15T09:51:01;1.38;;;1.27;;
12976;SDS011;6553;48.412;9.514;2023-04-15T09:53:27;2.30;;;1.60;;
12976;SDS011;6553;48.412;9.514;2023-04-15T09:55:54;1.73;;;1.48;;
12976;SDS011;6553;48.412;9.514;2023-04-15T09:58:23;1.33;;;1.23;;
12976;SDS011;6553;48.412;9.514;2023-04-15T10:00:54;1.30;;;1.20;;
12976;SDS011;6553;48.412;9.514;2023-04-15T10:03:22;1.30;;;1.20;;
12976;SDS011;6553;48.412;9.514;2023-04-15T10:05:52;1.50;;;1.40;;
12976;SDS011;6553;48.412;9.514;2023-04-15T10:08:21;1.80;;;1.60;;
12976;SDS011;6553;48.412;9.514;2023-04-15T10:10:50;1.38;;;1.20;;
12976;SDS011;6553;48.412;9.514;2023-04-15T10:13:20;1.30;;;1.20;;
12976;SDS011;6553;48.412;9.514;2023-04-15T10:15:59;1.20;;;1.10;;
12976;SDS011;6553;48.412;9.514;2023-04-15T10:18:31;1.48;;;1.27;;
12976;SDS011;6553;48.412;9.514;2023-04-15T10:21:02;1.80;;;1.13;;
12976;SDS011;6553;48.412;9.514;2023-04-15T10:23:30;1.38;;;1.27;;
12976;SDS011;6553;48.412;9.514;2023-04-15T10:25:57;1.40;;;1.30;;
12976;SDS011;6553;48.412;9.514;2023-04-15T10:28:24;1.30;;;1.20;;
12976;SDS011;6553;48.412;9.514;2023-04-15T10:30:51;1.75;;;1.48;;
12976;SDS011;6553;48.412;9.514;2023-04-15T10:33:18;1.75;;;1.25;;
12976;SDS011;6553;48.412;9.514;2023-04-15T10:35:49;1.30;;;1.20;;
12976;SDS011;6553;48.412;9.514;2023-04-15T10:41:17;1.33;;;1.23;;
12976;SDS011;6553;48.412;9.514;2023-04-15T10:46:43;1.48;;;1.10;;
12976;SDS011;6553;48.412;9.514;2023-04-15T10:49:13;0.93;;;0.93;;
12976;SDS011;6553;48.412;9.514;2023-04-15T10:51:45;1.10;;;1.00;;
12976;SDS011;6553;48.412;9.514;2023-04-15T10:56:50;1.20;;;1.10;;
12976;SDS011;6553;48.412;9.514;2023-04-15T10:59:32;1.85;;;1.30;;
12976;SDS011;6553;48.412;9.514;2023-04-15T11:02:04;1.27;;;1.17;;
12976;SDS011;6553;48.412;9.514;2023-04-15T11:04:50;1.30;;;1.20;;
12976;SDS011;6553;48.412;9.514;2023-04-15T11:07:33;1.77;;;1.50;;
12976;SDS011;6553;48.412;9.514;2023-04-15T11:12:59;1.30;;;1.20;;
12976;SDS011;6553;48.412;9.514;2023-04-15T11:20:37;1.27;;;1.17;;
12976;SDS011;6553;48.412;9.514;2023-04-15T11:23:05;1.30;;;1.20;;
12976;SDS011;6553;48.412;9.514;2023-04-15T11:25:32;1.38;;;1.23;;
12976;SDS011;6553;48.412;9.514;2023-04-15T11:28:00;0.90;;;0.90;;
12976;SDS011;6553;48.412;9.514;2023-04-15T11:30:27;1.48;;;1.38;;
12976;SDS011;6553;48.412;9.514;2023-04-15T11:33:03;1.52;;;1.40;;
12976;SDS011;6553;48.412;9.514;2023-04-15T11:35:32;1.15;;;1.05;;
12976;SDS011;6553;48.412;9.514;2023-04-15T11:38:02;1.17;;;1.08;;
12976;SDS011;6553;48.412;9.514;2023-04-15T11:40:30;1.30;;;1.20;;
12976;SDS011;6553;48.412;9.514;2023-04-15T11:45:35;1.20;;;1.10;;
12976;SDS011;6553;48.412;9.514;2023-04-15T11:50:33;1.25;;;1.15;;
12976;SDS011;6553;48.412;9.514;2023-04-15T11:53:01;1.10;;;1.00;;
12976;SDS011;6553;48.412;9.514;2023-04-15T11:55:30;1.35;;;1.00;;
12976;SDS011;6553;48.412;9.514;2023-04-15T11:58:08;1.17;;;1.10;;
12976;SDS011;6553;48.412;9.514;2023-04-15T12:00:40;1.20;;;1.10;;
12976;SDS011;6553;48.412;9.514;2023-04-15T12:03:12;1.00;;;0.90;;
12976;SDS011;6553;48.412;9.514;2023-04-15T12:14:05;1.08;;;0.98;;
12976;SDS011;6553;48.412;9.514;2023-04-15T12:17:02;1.00;;;1.00;;
12976;SDS011;6553;48.412;9.514;2023-04-15T12:19:34;1.00;;;1.00;;
12976;SDS011;6553;48.412;9.514;2023-04-15T12:22:08;1.02;;;0.93;;
12976;SDS011;6553;48.412;9.514;2023-04-15T12:24:37;0.82;;;0.75;;
12976;SDS011;6553;48.412;9.514;2023-04-15T12:27:04;1.13;;;1.02;;
12976;SDS011;6553;48.412;9.514;2023-04-15T12:29:32;1.67;;;1.02;;
12976;SDS011;6553;48.412;9.514;2023-04-15T12:32:05;1.23;;;1.17;;
12976;SDS011;6553;48.412;9.514;2023-04-15T12:34:44;1.10;;;1.00;;
12976;SDS011;6553;48.412;9.514;2023-04-15T12:37:17;1.25;;;1.15;;
12976;SDS011;6553;48.412;9.514;2023-04-15T12:39:44;1.10;;;1.10;;
12976;SDS011;6553;48.412;9.514;2023-04-15T12:42:13;0.90;;;0.90;;
12976;SDS011;6553;48.412;9.514;2023-04-15T12:44:40;1.45;;;1.30;;
12976;SDS011;6553;48.412;9.514;2023-04-15T12:47:07;1.02;;;0.93;;
12976;SDS011;6553;48.412;9.514;2023-04-15T12:49:34;1.23;;;1.13;;
12976;SDS011;6553;48.412;9.514;2023-04-15T12:52:01;0.98;;;0.98;;
12976;SDS011;6553;48.412;9.514;2023-04-15T12:54:28;1.00;;;1.00;;
12976;SDS011;6553;48.412;9.514;2023-04-15T12:56:55;1.30;;;1.20;;
12976;SDS011;6553;48.412;9.514;2023-04-15T12:59:22;0.90;;;0.90;;
12976;SDS011;6553;48.412;9.514;2023-04-15T13:01:48;0.93;;;0.93;;
12976;SDS011;6553;48.412;9.514;2023-04-15T13:04:16;1.30;;;1.20;;
12976;SDS011;6553;48.412;9.514;2023-04-15T13:06:42;1.05;;;0.98;;
12976;SDS011;6553;48.412;9.514;2023-04-15T13:09:08;0.93;;;0.80;;
12976;SDS011;6553;48.412;9.514;2023-04-15T13:11:33;1.10;;;1.02;;
12976;SDS011;6553;48.412;9.514;2023-04-15T13:14:00;1.20;;;1.10;;
12976;SDS011;6553;48.412;9.514;2023-04-15T13:16:28;0.90;;;0.90;;
12976;SDS011;6553;48.412;9.514;2023-04-15T13:18:56;1.15;;;1.05;;
12976;SDS011;6553;48.412;9.514;2023-04-15T13:21:24;1.15;;;1.10;;
12976;SDS011;6553;48.412;9.514;2023-04-15T13:23:51;1.15;;;1.15;;
12976;SDS011;6553;48.412;9.514;2023-04-15T13:26:17;1.20;;;1.10;;
12976;SDS011;6553;48.412;9.514;2023-04-15T13:28:43;0.95;;;0.95;;
12976;SDS011;6553;48.412;9.514;2023-04-15T13:31:09;1.25;;;0.88;;
12976;SDS011;6553;48.412;9.514;2023-04-15T13:33:35;1.02;;;1.02;;
12976;SDS011;6553;48.412;9.514;2023-04-15T13:36:01;1.45;;;1.15;;
12976;SDS011;6553;48.412;9.514;2023-04-15T13:38:27;1.08;;;1.08;;
12976;SDS011;6553;48.412;9.514;2023-04-15T13:40:53;1.13;;;1.08;;
12976;SDS011;6553;48.412;9.514;2023-04-15T13:43:18;1.05;;;1.02;;
12976;SDS011;6553;48.412;9.514;2023-04-15T13:45:46;1.10;;;1.00;;
12976;SDS011;6553;48.412;9.514;2023-04-15T13:48:12;1.13;;;1.10;;
12976;SDS011;6553;48.412;9.514;2023-04-15T13:50:38;1.48;;;1.05;;
12976;SDS011;6553;48.412;9.514;2023-04-15T13:53:05;1.00;;;0.90;;
12976;SDS011;6553;48.412;9.514;2023-04-15T13:55:31;1.10;;;1.00;;
12976;SDS011;6553;48.412;9.514;2023-04-15T13:57:59;1.13;;;1.02;;
12976;SDS011;6553;48.412;9.514;2023-04-15T14:00:24;0.82;;;0.82;;
12976;SDS011;6553;48.412;9.514;2023-04-15T14:02:50;0.85;;;0.85;;
12976;SDS011;6553;48.412;9.514;2023-04-15T14:05:16;0.80;;;0.80;;
12976;SDS011;6553;48.412;9.514;2023-04-15T14:07:42;1.10;;;1.00;;
12976;SDS011;6553;48.412;9.514;2023-04-15T14:10:07;0.95;;;0.95;;
12976;SDS011;6553;48.412;9.514;2023-04-15T14:12:33;2.05;;;1.00;;
12976;SDS011;6553;48.412;9.514;2023-04-15T14:14:59;1.00;;;1.00;;
12976;SDS011;6553;48.412;9.514;2023-04-15T14:17:25;1.05;;;0.98;;
12976;SDS011;6553;48.412;9.514;2023-04-15T14:19:51;1.00;;;1.00;;
12976;SDS011;6553;48.412;9.514;2023-04-15T14:22:16;1.10;;;1.00;;
12976;SDS011;6553;48.412;9.514;2023-04-15T14:24:43;0.90;;;0.90;;
12976;SDS011;6553;48.412;9.514;2023-04-15T14:27:09;0.90;;;0.90;;
12976;SDS011;6553;48.412;9.514;2023-04-15T14:29:36;1.33;;;1.23;;
12976;SDS011;6553;48.412;9.514;2023-04-15T14:32:02;1.17;;;1.08;;
12976;SDS011;6553;48.412;9.514;2023-04-15T14:34:28;1.17;;;0.98;;
12976;SDS011;6553;48.412;9.514;2023-04-15T14:36:54;0.85;;;0.85;;
12976;SDS011;6553;48.412;9.514;2023-04-15T14:39:20;0.80;;;0.80;;
12976;SDS011;6553;48.412;9.514;2023-04-15T14:41:46;0.82;;;0.80;;
12976;SDS011;6553;48.412;9.514;2023-04-15T14:44:12;0.80;;;0.80;;
12976;SDS011;6553;48.412;9.514;2023-04-15T14:46:38;0.98;;;0.90;;
12976;SDS011;6553;48.412;9.514;2023-04-15T14:49:05;0.93;;;0.88;;
12976;SDS011;6553;48.412;9.514;2023-04-15T14:51:31;0.98;;;0.90;;
12976;SDS011;6553;48.412;9.514;2023-04-15T14:53:57;1.33;;;0.95;;
12976;SDS011;6553;48.412;9.514;2023-04-15T14:56:23;1.35;;;1.00;;
12976;SDS011;6553;48.412;9.514;2023-04-15T14:58:49;1.20;;;1.10;;
12976;SDS011;6553;48.412;9.514;2023-04-15T15:01:17;1.00;;;0.98;;
12976;SDS011;6553;48.412;9.514;2023-04-15T15:03:43;1.35;;;1.25;;
12976;SDS011;6553;48.412;9.514;2023-04-15T15:06:09;0.88;;;0.88;;
12976;SDS011;6553;48.412;9.514;2023-04-15T15:08:35;1.05;;;1.05;;
12976;SDS011;6553;48.412;9.514;2023-04-15T15:11:01;0.85;;;0.85;;
12976;SDS011;6553;48.412;9.514;2023-04-15T15:13:26;0.80;;;0.80;;
12976;SDS011;6553;48.412;9.514;2023-04-15T15:15:52;1.13;;;1.10;;
12976;SDS011;6553;48.412;9.514;2023-04-15T15:18:18;0.90;;;0.90;;
12976;SDS011;6553;48.412;9.514;2023-04-15T15:20:44;0.88;;;0.88;;
12976;SDS011;6553;48.412;9.514;2023-04-15T15:23:10;1.00;;;0.90;;
12976;SDS011;6553;48.412;9.514;2023-04-15T15:25:36;0.80;;;0.80;;
12976;SDS011;6553;48.412;9.514;2023-04-15T15:28:02;0.95;;;0.80;;
12976;SDS011;6553;48.412;9.514;2023-04-15T15:30:28;1.10;;;1.00;;
12976;SDS011;6553;48.412;9.514;2023-04-15T15:32:54;0.90;;;0.90;;